sensor_id;sensor_type;location;lat;lon;timestamp;P1;durP1;ratioP1;P2;durP2;ratioP2
76433;SDS011;65265;53.200;6.080;2024-03-08T00:03:36;26.55;;;12.52;;
76433;SDS011;65265;53.200;6.080;2024-03-08T00:08:29;25.13;;;12.90;;
76433;SDS011;65265;53.200;6.080;2024-03-08T00:13:21;26.02;;;12.70;;
76433;SDS011;65265;53.200;6.080;2024-03-08T00:18:15;26.15;;;12.85;;
76433;SDS011;65265;53.200;6.080;2024-03-08T00:23:06;26.75;;;12.55;;
76433;SDS011;65265;53.200;6.080;2024-03-08T00:27:59;22.50;;;11.63;;
76433;SDS011;65265;53.200;6.080;2024-03-08T00:32:51;28.60;;;13.68;;
76433;SDS011;65265;53.200;6.080;2024-03-08T00:37:42;30.75;;;13.18;;
76433;SDS011;65265;53.200;6.080;2024-03-08T00:47:31;32.17;;;13.52;;
76433;SDS011;65265;53.200;6.080;2024-03-08T00:52:22;25.63;;;13.13;;
76433;SDS011;65265;53.200;6.080;2024-03-08T00:57:15;29.98;;;15.10;;
76433;SDS011;65265;53.200;6.080;2024-03-08T01:02:06;28.85;;;13.48;;
76433;SDS011;65265;53.200;6.080;2024-03-08T01:07:00;33.72;;;14.50;;
76433;SDS011;65265;53.200;6.080;2024-03-08T01:11:52;40.50;;;17.27;;
76433;SDS011;65265;53.200;6.080;2024-03-08T01:16:44;35.08;;;14.70;;
76433;SDS011;65265;53.200;6.080;2024-03-08T01:21:37;41.88;;;17.77;;
76433;SDS011;65265;53.200;6.080;2024-03-08T01:26:37;31.80;;;16.13;;
76433;SDS011;65265;53.200;6.080;2024-03-08T01:31:31;35.72;;;15.65;;
76433;SDS011;65265;53.200;6.080;2024-03-08T01:36:24;34.28;;;16.52;;
76433;SDS011;65265;53.200;6.080;2024-03-08T01:41:18;35.58;;;16.30;;
76433;SDS011;65265;53.200;6.080;2024-03-08T01:46:17;40.47;;;18.75;;
76433;SDS011;65265;53.200;6.080;2024-03-08T01:51:15;39.35;;;18.25;;
76433;SDS011;65265;53.200;6.080;2024-03-08T01:56:09;40.90;;;18.67;;
76433;SDS011;65265;53.200;6.080;2024-03-08T02:01:03;47.83;;;20.80;;
76433;SDS011;65265;53.200;6.080;2024-03-08T02:06:09;40.88;;;18.63;;
76433;SDS011;65265;53.200;6.080;2024-03-08T02:11:05;36.13;;;17.63;;
76433;SDS011;65265;53.200;6.080;2024-03-08T02:15:58;42.08;;;16.92;;
76433;SDS011;65265;53.200;6.080;2024-03-08T02:20:58;40.33;;;17.38;;
76433;SDS011;65265;53.200;6.080;2024-03-08T02:25:53;38.38;;;16.80;;
76433;SDS011;65265;53.200;6.080;2024-03-08T02:30:48;38.78;;;17.80;;
76433;SDS011;65265;53.200;6.080;2024-03-08T02:35:46;38.83;;;17.85;;
76433;SDS011;65265;53.200;6.080;2024-03-08T02:40:45;36.92;;;19.08;;
76433;SDS011;65265;53.200;6.080;2024-03-08T02:45:39;35.25;;;17.27;;
76433;SDS011;65265;53.200;6.080;2024-03-08T02:50:35;42.75;;;18.35;;
76433;SDS011;65265;53.200;6.080;2024-03-08T02:55:29;37.00;;;16.30;;
76433;SDS011;65265;53.200;6.080;2024-03-08T03:00:27;34.38;;;17.38;;
76433;SDS011;65265;53.200;6.080;2024-03-08T03:05:23;36.67;;;16.40;;
76433;SDS011;65265;53.200;6.080;2024-03-08T03:10:17;33.55;;;16.05;;
76433;SDS011;65265;53.200;6.080;2024-03-08T03:15:12;35.78;;;16.95;;
76433;SDS011;65265;53.200;6.080;2024-03-08T03:20:09;33.88;;;15.48;;
76433;SDS011;65265;53.200;6.080;2024-03-08T03:25:04;37.90;;;20.88;;
76433;SDS011;65265;53.200;6.080;2024-03-08T03:29:58;38.90;;;17.80;;
76433;SDS011;65265;53.200;6.080;2024-03-08T03:35:16;35.90;;;16.42;;
76433;SDS011;65265;53.200;6.080;2024-03-08T03:40:11;38.25;;;15.43;;
76433;SDS011;65265;53.200;6.080;2024-03-08T03:45:05;34.95;;;17.13;;
76433;SDS011;65265;53.200;6.080;2024-03-08T03:50:00;36.28;;;16.33;;
76433;SDS011;65265;53.200;6.080;2024-03-08T03:54:56;34.40;;;14.55;;
76433;SDS011;65265;53.200;6.080;2024-03-08T03:59:50;37.25;;;16.23;;
76433;SDS011;65265;53.200;6.080;2024-03-08T04:04:42;34.28;;;16.15;;
76433;SDS011;65265;53.200;6.080;2024-03-08T04:09:38;33.05;;;19.80;;
76433;SDS011;65265;53.200;6.080;2024-03-08T04:14:34;33.60;;;16.20;;
76433;SDS011;65265;53.200;6.080;2024-03-08T04:19:26;37.60;;;16.30;;
76433;SDS011;65265;53.200;6.080;2024-03-08T04:24:18;32.88;;;15.50;;
76433;SDS011;65265;53.200;6.080;2024-03-08T04:29:10;35.90;;;15.27;;
76433;SDS011;65265;53.200;6.080;2024-03-08T04:34:06;30.55;;;15.57;;
76433;SDS011;65265;53.200;6.080;2024-03-08T04:43:53;26.33;;;14.10;;
76433;SDS011;65265;53.200;6.080;2024-03-08T04:48:48;38.03;;;19.73;;
76433;SDS011;65265;53.200;6.080;2024-03-08T04:53:44;31.75;;;15.27;;
76433;SDS011;65265;53.200;6.080;2024-03-08T04:58:37;32.33;;;14.80;;
76433;SDS011;65265;53.200;6.080;2024-03-08T05:03:30;31.90;;;15.82;;
76433;SDS011;65265;53.200;6.080;2024-03-08T05:08:25;32.30;;;14.68;;
76433;SDS011;65265;53.200;6.080;2024-03-08T05:13:22;30.40;;;16.00;;
76433;SDS011;65265;53.200;6.080;2024-03-08T05:18:18;27.52;;;15.27;;
76433;SDS011;65265;53.200;6.080;2024-03-08T05:23:13;26.92;;;13.40;;
76433;SDS011;65265;53.200;6.080;2024-03-08T05:28:07;27.92;;;13.82;;
76433;SDS011;65265;53.200;6.080;2024-03-08T05:33:05;29.23;;;15.32;;
76433;SDS011;65265;53.200;6.080;2024-03-08T05:38:00;28.50;;;14.90;;
76433;SDS011;65265;53.200;6.080;2024-03-08T05:42:55;29.30;;;14.30;;
76433;SDS011;65265;53.200;6.080;2024-03-08T05:47:48;35.95;;;14.45;;
76433;SDS011;65265;53.200;6.080;2024-03-08T05:52:45;27.67;;;12.90;;
76433;SDS011;65265;53.200;6.080;2024-03-08T05:57:40;31.17;;;13.05;;
76433;SDS011;65265;53.200;6.080;2024-03-08T06:02:34;29.40;;;14.57;;
76433;SDS011;65265;53.200;6.080;2024-03-08T06:07:33;28.70;;;13.32;;
76433;SDS011;65265;53.200;6.080;2024-03-08T06:12:29;32.28;;;14.30;;
76433;SDS011;65265;53.200;6.080;2024-03-08T06:17:24;30.75;;;14.95;;
76433;SDS011;65265;53.200;6.080;2024-03-08T06:22:18;30.38;;;13.00;;
76433;SDS011;65265;53.200;6.080;2024-03-08T06:27:11;29.60;;;14.25;;
76433;SDS011;65265;53.200;6.080;2024-03-08T06:32:11;24.83;;;14.38;;
76433;SDS011;65265;53.200;6.080;2024-03-08T06:37:06;29.73;;;15.77;;
76433;SDS011;65265;53.200;6.080;2024-03-08T06:42:01;29.80;;;13.77;;
76433;SDS011;65265;53.200;6.080;2024-03-08T06:46:55;32.50;;;15.57;;
76433;SDS011;65265;53.200;6.080;2024-03-08T06:51:51;32.53;;;14.85;;
76433;SDS011;65265;53.200;6.080;2024-03-08T06:56:46;27.70;;;13.13;;
76433;SDS011;65265;53.200;6.080;2024-03-08T07:01:40;30.90;;;14.55;;
76433;SDS011;65265;53.200;6.080;2024-03-08T07:06:32;29.73;;;14.35;;
76433;SDS011;65265;53.200;6.080;2024-03-08T07:11:30;26.70;;;13.73;;
76433;SDS011;65265;53.200;6.080;2024-03-08T07:16:23;30.38;;;14.15;;
76433;SDS011;65265;53.200;6.080;2024-03-08T07:21:18;34.15;;;13.75;;
76433;SDS011;65265;53.200;6.080;2024-03-08T07:26:15;30.40;;;13.48;;
76433;SDS011;65265;53.200;6.080;2024-03-08T07:31:10;29.55;;;12.13;;
76433;SDS011;65265;53.200;6.080;2024-03-08T07:36:13;24.90;;;12.38;;
76433;SDS011;65265;53.200;6.080;2024-03-08T07:41:06;28.98;;;12.95;;
76433;SDS011;65265;53.200;6.080;2024-03-08T07:45:59;25.85;;;13.43;;
76433;SDS011;65265;53.200;6.080;2024-03-08T07:50:54;31.60;;;13.68;;
76433;SDS011;65265;53.200;6.080;2024-03-08T07:55:47;28.83;;;13.02;;
76433;SDS011;65265;53.200;6.080;2024-03-08T08:00:39;26.65;;;13.23;;
76433;SDS011;65265;53.200;6.080;2024-03-08T08:05:33;26.85;;;15.70;;
76433;SDS011;65265;53.200;6.080;2024-03-08T08:10:27;23.33;;;11.73;;
76433;SDS011;65265;53.200;6.080;2024-03-08T08:15:18;28.95;;;14.18;;
76433;SDS011;65265;53.200;6.080;2024-03-08T08:20:10;25.98;;;13.13;;
76433;SDS011;65265;53.200;6.080;2024-03-08T08:25:03;24.77;;;12.90;;
76433;SDS011;65265;53.200;6.080;2024-03-08T08:29:57;27.50;;;12.90;;
76433;SDS011;65265;53.200;6.080;2024-03-08T08:34:48;29.25;;;15.75;;
76433;SDS011;65265;53.200;6.080;2024-03-08T08:39:40;25.35;;;12.95;;
76433;SDS011;65265;53.200;6.080;2024-03-08T08:44:31;26.23;;;13.00;;
76433;SDS011;65265;53.200;6.080;2024-03-08T08:49:28;27.08;;;14.23;;
76433;SDS011;65265;53.200;6.080;2024-03-08T08:54:21;32.58;;;15.48;;
76433;SDS011;65265;53.200;6.080;2024-03-08T08:59:15;25.48;;;13.30;;
76433;SDS011;65265;53.200;6.080;2024-03-08T09:04:09;26.88;;;13.55;;
76433;SDS011;65265;53.200;6.080;2024-03-08T09:09:04;27.70;;;14.25;;
76433;SDS011;65265;53.200;6.080;2024-03-08T09:13:55;27.65;;;13.93;;
76433;SDS011;65265;53.200;6.080;2024-03-08T09:18:47;28.48;;;13.30;;
76433;SDS011;65265;53.200;6.080;2024-03-08T09:23:39;26.15;;;14.52;;
76433;SDS011;65265;53.200;6.080;2024-03-08T09:28:32;27.92;;;13.85;;
76433;SDS011;65265;53.200;6.080;2024-03-08T09:33:25;29.27;;;14.05;;
76433;SDS011;65265;53.200;6.080;2024-03-08T09:38:18;26.00;;;13.88;;
76433;SDS011;65265;53.200;6.080;2024-03-08T09:43:10;25.70;;;14.10;;
76433;SDS011;65265;53.200;6.080;2024-03-08T09:48:04;28.65;;;14.02;;
76433;SDS011;65265;53.200;6.080;2024-03-08T09:52:58;24.80;;;13.23;;
76433;SDS011;65265;53.200;6.080;2024-03-08T09:57:51;26.27;;;13.90;;
76433;SDS011;65265;53.200;6.080;2024-03-08T10:03:06;27.25;;;12.48;;
76433;SDS011;65265;53.200;6.080;2024-03-08T10:08:01;21.63;;;12.75;;
76433;SDS011;65265;53.200;6.080;2024-03-08T10:12:55;26.10;;;12.77;;
76433;SDS011;65265;53.200;6.080;2024-03-08T10:17:48;23.58;;;11.75;;
76433;SDS011;65265;53.200;6.080;2024-03-08T10:22:45;22.10;;;12.55;;
76433;SDS011;65265;53.200;6.080;2024-03-08T10:27:42;24.88;;;12.20;;
76433;SDS011;65265;53.200;6.080;2024-03-08T10:32:35;20.08;;;11.82;;
76433;SDS011;65265;53.200;6.080;2024-03-08T10:37:28;25.05;;;13.80;;
76433;SDS011;65265;53.200;6.080;2024-03-08T10:42:28;28.92;;;16.13;;
76433;SDS011;65265;53.200;6.080;2024-03-08T10:47:29;26.45;;;14.43;;
76433;SDS011;65265;53.200;6.080;2024-03-08T10:52:23;25.15;;;13.35;;
76433;SDS011;65265;53.200;6.080;2024-03-08T10:57:17;25.10;;;12.18;;
76433;SDS011;65265;53.200;6.080;2024-03-08T11:02:15;25.77;;;14.93;;
76433;SDS011;65265;53.200;6.080;2024-03-08T11:07:10;29.85;;;14.95;;
76433;SDS011;65265;53.200;6.080;2024-03-08T11:12:20;26.35;;;13.75;;
76433;SDS011;65265;53.200;6.080;2024-03-08T11:17:17;26.65;;;13.45;;
76433;SDS011;65265;53.200;6.080;2024-03-08T11:22:20;25.83;;;13.63;;
76433;SDS011;65265;53.200;6.080;2024-03-08T11:27:18;27.33;;;14.05;;
76433;SDS011;65265;53.200;6.080;2024-03-08T11:32:12;25.15;;;13.73;;
76433;SDS011;65265;53.200;6.080;2024-03-08T11:37:11;25.85;;;13.40;;
76433;SDS011;65265;53.200;6.080;2024-03-08T11:42:04;24.00;;;14.23;;
76433;SDS011;65265;53.200;6.080;2024-03-08T11:46:56;23.77;;;14.40;;
76433;SDS011;65265;53.200;6.080;2024-03-08T11:51:50;22.20;;;11.93;;
76433;SDS011;65265;53.200;6.080;2024-03-08T11:56:45;24.83;;;15.93;;
76433;SDS011;65265;53.200;6.080;2024-03-08T12:01:37;26.85;;;14.10;;
76433;SDS011;65265;53.200;6.080;2024-03-08T12:06:36;24.70;;;12.48;;
76433;SDS011;65265;53.200;6.080;2024-03-08T12:11:29;26.30;;;14.13;;
76433;SDS011;65265;53.200;6.080;2024-03-08T12:16:23;25.58;;;14.07;;
76433;SDS011;65265;53.200;6.080;2024-03-08T12:21:15;26.02;;;14.50;;
76433;SDS011;65265;53.200;6.080;2024-03-08T12:26:11;28.00;;;14.65;;
76433;SDS011;65265;53.200;6.080;2024-03-08T12:36:06;25.58;;;12.45;;
76433;SDS011;65265;53.200;6.080;2024-03-08T12:41:05;22.48;;;12.70;;
76433;SDS011;65265;53.200;6.080;2024-03-08T12:45:58;23.55;;;12.95;;
76433;SDS011;65265;53.200;6.080;2024-03-08T12:50:50;26.20;;;16.45;;
76433;SDS011;65265;53.200;6.080;2024-03-08T12:55:48;23.05;;;13.43;;
76433;SDS011;65265;53.200;6.080;2024-03-08T13:00:42;27.63;;;14.68;;
76433;SDS011;65265;53.200;6.080;2024-03-08T13:05:36;25.63;;;14.50;;
76433;SDS011;65265;53.200;6.080;2024-03-08T13:10:32;24.38;;;14.40;;
76433;SDS011;65265;53.200;6.080;2024-03-08T13:15:29;26.45;;;14.13;;
76433;SDS011;65265;53.200;6.080;2024-03-08T13:20:24;21.33;;;12.55;;
76433;SDS011;65265;53.200;6.080;2024-03-08T13:25:18;22.63;;;13.27;;
76433;SDS011;65265;53.200;6.080;2024-03-08T13:30:11;22.38;;;14.13;;
76433;SDS011;65265;53.200;6.080;2024-03-08T13:35:10;23.08;;;13.82;;
76433;SDS011;65265;53.200;6.080;2024-03-08T13:40:14;21.52;;;12.63;;
76433;SDS011;65265;53.200;6.080;2024-03-08T13:45:09;23.90;;;12.43;;
76433;SDS011;65265;53.200;6.080;2024-03-08T13:50:04;22.38;;;12.75;;
76433;SDS011;65265;53.200;6.080;2024-03-08T13:55:00;22.05;;;12.07;;
76433;SDS011;65265;53.200;6.080;2024-03-08T13:59:53;28.38;;;13.50;;
76433;SDS011;65265;53.200;6.080;2024-03-08T14:04:47;20.52;;;11.73;;
76433;SDS011;65265;53.200;6.080;2024-03-08T14:09:40;19.70;;;11.30;;
76433;SDS011;65265;53.200;6.080;2024-03-08T14:14:37;20.88;;;13.77;;
76433;SDS011;65265;53.200;6.080;2024-03-08T14:19:31;20.02;;;11.45;;
76433;SDS011;65265;53.200;6.080;2024-03-08T14:24:24;17.88;;;11.02;;
76433;SDS011;65265;53.200;6.080;2024-03-08T14:29:19;22.35;;;11.27;;
76433;SDS011;65265;53.200;6.080;2024-03-08T14:34:15;23.38;;;12.93;;
76433;SDS011;65265;53.200;6.080;2024-03-08T14:39:10;22.33;;;13.15;;
76433;SDS011;65265;53.200;6.080;2024-03-08T14:44:04;21.65;;;11.80;;
76433;SDS011;65265;53.200;6.080;2024-03-08T14:49:00;19.90;;;11.20;;
76433;SDS011;65265;53.200;6.080;2024-03-08T14:53:55;21.98;;;11.50;;
76433;SDS011;65265;53.200;6.080;2024-03-08T14:58:49;19.75;;;10.73;;
76433;SDS011;65265;53.200;6.080;2024-03-08T15:03:42;17.77;;;10.73;;
76433;SDS011;65265;53.200;6.080;2024-03-08T15:08:36;18.65;;;10.00;;
76433;SDS011;65265;53.200;6.080;2024-03-08T15:13:34;16.08;;;10.05;;
76433;SDS011;65265;53.200;6.080;2024-03-08T15:18:32;18.92;;;10.23;;
76433;SDS011;65265;53.200;6.080;2024-03-08T15:23:27;18.23;;;9.85;;
76433;SDS011;65265;53.200;6.080;2024-03-08T15:28:21;20.48;;;14.23;;
76433;SDS011;65265;53.200;6.080;2024-03-08T15:33:23;20.50;;;11.13;;
76433;SDS011;65265;53.200;6.080;2024-03-08T15:38:17;18.40;;;10.93;;
76433;SDS011;65265;53.200;6.080;2024-03-08T15:43:11;19.17;;;11.32;;
76433;SDS011;65265;53.200;6.080;2024-03-08T15:48:06;19.08;;;10.70;;
76433;SDS011;65265;53.200;6.080;2024-03-08T15:52:59;21.45;;;11.32;;
76433;SDS011;65265;53.200;6.080;2024-03-08T15:57:51;18.60;;;10.93;;
76433;SDS011;65265;53.200;6.080;2024-03-08T16:02:45;20.95;;;11.27;;
76433;SDS011;65265;53.200;6.080;2024-03-08T16:07:40;22.60;;;11.82;;
76433;SDS011;65265;53.200;6.080;2024-03-08T16:12:35;22.83;;;12.02;;
76433;SDS011;65265;53.200;6.080;2024-03-08T16:17:27;17.73;;;11.70;;
76433;SDS011;65265;53.200;6.080;2024-03-08T16:22:19;19.90;;;10.95;;
76433;SDS011;65265;53.200;6.080;2024-03-08T16:27:10;20.70;;;12.75;;
76433;SDS011;65265;53.200;6.080;2024-03-08T16:32:04;24.10;;;11.60;;
76433;SDS011;65265;53.200;6.080;2024-03-08T16:36:55;22.27;;;12.05;;
76433;SDS011;65265;53.200;6.080;2024-03-08T16:41:49;22.33;;;12.85;;
76433;SDS011;65265;53.200;6.080;2024-03-08T16:46:40;19.48;;;11.63;;
76433;SDS011;65265;53.200;6.080;2024-03-08T16:51:33;22.45;;;12.13;;
76433;SDS011;65265;53.200;6.080;2024-03-08T16:56:25;23.17;;;13.15;;
76433;SDS011;65265;53.200;6.080;2024-03-08T17:01:16;23.45;;;12.07;;
76433;SDS011;65265;53.200;6.080;2024-03-08T17:06:08;20.25;;;11.35;;
76433;SDS011;65265;53.200;6.080;2024-03-08T17:11:01;22.45;;;13.18;;
76433;SDS011;65265;53.200;6.080;2024-03-08T17:15:53;24.05;;;13.38;;
76433;SDS011;65265;53.200;6.080;2024-03-08T17:20:45;25.30;;;12.15;;
76433;SDS011;65265;53.200;6.080;2024-03-08T17:25:36;21.52;;;10.73;;
76433;SDS011;65265;53.200;6.080;2024-03-08T17:30:33;26.05;;;12.95;;
76433;SDS011;65265;53.200;6.080;2024-03-08T17:35:28;22.50;;;10.95;;
76433;SDS011;65265;53.200;6.080;2024-03-08T17:45:14;21.52;;;11.35;;
76433;SDS011;65265;53.200;6.080;2024-03-08T17:50:08;21.23;;;11.32;;
76433;SDS011;65265;53.200;6.080;2024-03-08T17:55:04;22.60;;;12.35;;
76433;SDS011;65265;53.200;6.080;2024-03-08T17:59:59;22.00;;;11.88;;
76433;SDS011;65265;53.200;6.080;2024-03-08T18:04:51;21.40;;;11.40;;
76433;SDS011;65265;53.200;6.080;2024-03-08T18:09:44;24.92;;;13.10;;
76433;SDS011;65265;53.200;6.080;2024-03-08T18:14:35;24.58;;;12.40;;
76433;SDS011;65265;53.200;6.080;2024-03-08T18:19:27;24.75;;;13.25;;
76433;SDS011;65265;53.200;6.080;2024-03-08T18:24:21;20.85;;;12.57;;
76433;SDS011;65265;53.200;6.080;2024-03-08T18:29:14;24.27;;;12.57;;
76433;SDS011;65265;53.200;6.080;2024-03-08T18:34:06;26.27;;;11.45;;
76433;SDS011;65265;53.200;6.080;2024-03-08T18:39:00;27.45;;;13.00;;
76433;SDS011;65265;53.200;6.080;2024-03-08T18:43:54;24.27;;;13.00;;
76433;SDS011;65265;53.200;6.080;2024-03-08T18:48:49;24.13;;;13.25;;
76433;SDS011;65265;53.200;6.080;2024-03-08T18:58:32;21.67;;;12.02;;
76433;SDS011;65265;53.200;6.080;2024-03-08T19:03:24;23.88;;;12.90;;
76433;SDS011;65265;53.200;6.080;2024-03-08T19:08:18;30.80;;;14.30;;
76433;SDS011;65265;53.200;6.080;2024-03-08T19:13:12;28.27;;;12.90;;
76433;SDS011;65265;53.200;6.080;2024-03-08T19:18:04;28.35;;;13.48;;
76433;SDS011;65265;53.200;6.080;2024-03-08T19:22:57;24.10;;;13.35;;
76433;SDS011;65265;53.200;6.080;2024-03-08T19:27:51;27.65;;;14.93;;
76433;SDS011;65265;53.200;6.080;2024-03-08T19:32:43;27.15;;;13.57;;
76433;SDS011;65265;53.200;6.080;2024-03-08T19:37:36;26.13;;;13.55;;
76433;SDS011;65265;53.200;6.080;2024-03-08T19:42:29;27.85;;;15.77;;
76433;SDS011;65265;53.200;6.080;2024-03-08T19:47:22;28.70;;;15.50;;
76433;SDS011;65265;53.200;6.080;2024-03-08T19:52:13;26.63;;;13.77;;
76433;SDS011;65265;53.200;6.080;2024-03-08T19:57:05;25.75;;;13.70;;
76433;SDS011;65265;53.200;6.080;2024-03-08T20:01:57;29.60;;;13.50;;
76433;SDS011;65265;53.200;6.080;2024-03-08T20:06:52;23.35;;;11.82;;
76433;SDS011;65265;53.200;6.080;2024-03-08T20:11:44;27.08;;;14.15;;
76433;SDS011;65265;53.200;6.080;2024-03-08T20:16:36;29.77;;;14.10;;
76433;SDS011;65265;53.200;6.080;2024-03-08T20:21:27;26.50;;;12.93;;
76433;SDS011;65265;53.200;6.080;2024-03-08T20:26:20;21.50;;;11.60;;
76433;SDS011;65265;53.200;6.080;2024-03-08T20:36:04;23.17;;;13.05;;
76433;SDS011;65265;53.200;6.080;2024-03-08T20:40:56;23.52;;;11.25;;
76433;SDS011;65265;53.200;6.080;2024-03-08T20:45:49;26.92;;;14.60;;
76433;SDS011;65265;53.200;6.080;2024-03-08T20:50:40;22.45;;;11.23;;
76433;SDS011;65265;53.200;6.080;2024-03-08T20:55:32;23.13;;;13.25;;
76433;SDS011;65265;53.200;6.080;2024-03-08T21:00:24;24.13;;;12.00;;
76433;SDS011;65265;53.200;6.080;2024-03-08T21:05:31;28.25;;;12.35;;
76433;SDS011;65265;53.200;6.080;2024-03-08T21:10:24;22.88;;;11.32;;
76433;SDS011;65265;53.200;6.080;2024-03-08T21:15:19;25.63;;;12.60;;
76433;SDS011;65265;53.200;6.080;2024-03-08T21:20:10;24.30;;;12.00;;
76433;SDS011;65265;53.200;6.080;2024-03-08T21:25:04;26.58;;;13.05;;
76433;SDS011;65265;53.200;6.080;2024-03-08T21:29:56;20.52;;;11.65;;
76433;SDS011;65265;53.200;6.080;2024-03-08T21:34:48;23.73;;;11.82;;
76433;SDS011;65265;53.200;6.080;2024-03-08T21:39:39;21.77;;;10.88;;
76433;SDS011;65265;53.200;6.080;2024-03-08T21:44:32;21.88;;;11.23;;
76433;SDS011;65265;53.200;6.080;2024-03-08T21:49:24;21.85;;;10.90;;
76433;SDS011;65265;53.200;6.080;2024-03-08T21:54:17;21.42;;;11.02;;
76433;SDS011;65265;53.200;6.080;2024-03-08T21:59:09;20.80;;;12.20;;
76433;SDS011;65265;53.200;6.080;2024-03-08T22:04:05;19.98;;;10.65;;
76433;SDS011;65265;53.200;6.080;2024-03-08T22:13:49;23.70;;;10.65;;
76433;SDS011;65265;53.200;6.080;2024-03-08T22:18:40;22.27;;;10.77;;
76433;SDS011;65265;53.200;6.080;2024-03-08T22:23:33;23.55;;;11.20;;
76433;SDS011;65265;53.200;6.080;2024-03-08T22:28:26;20.02;;;10.75;;
76433;SDS011;65265;53.200;6.080;2024-03-08T22:33:18;23.08;;;10.68;;
76433;SDS011;65265;53.200;6.080;2024-03-08T22:38:09;21.25;;;11.90;;
76433;SDS011;65265;53.200;6.080;2024-03-08T22:43:03;20.48;;;11.73;;
76433;SDS011;65265;53.200;6.080;2024-03-08T22:47:56;24.00;;;11.10;;
76433;SDS011;65265;53.200;6.080;2024-03-08T22:52:49;19.58;;;10.50;;
76433;SDS011;65265;53.200;6.080;2024-03-08T22:57:41;22.73;;;11.40;;
76433;SDS011;65265;53.200;6.080;2024-03-08T23:02:35;18.83;;;11.15;;
76433;SDS011;65265;53.200;6.080;2024-03-08T23:07:27;26.48;;;12.10;;
76433;SDS011;65265;53.200;6.080;2024-03-08T23:12:21;25.27;;;12.23;;
76433;SDS011;65265;53.200;6.080;2024-03-08T23:17:12;22.23;;;11.30;;
76433;SDS011;65265;53.200;6.080;2024-03-08T23:22:07;25.92;;;12.27;;
76433;SDS011;65265;53.200;6.080;2024-03-08T23:26:59;26.90;;;12.45;;
76433;SDS011;65265;53.200;6.080;2024-03-08T23:31:51;19.98;;;10.93;;
76433;SDS011;65265;53.200;6.080;2024-03-08T23:41:40;30.15;;;12.13;;
76433;SDS011;65265;53.200;6.080;2024-03-08T23:46:31;25.23;;;13.10;;
76433;SDS011;65265;53.200;6.080;2024-03-08T23:51:23;19.70;;;10.95;;
76433;SDS011;65265;53.200;6.080;2024-03-08T23:56:15;24.50;;;11.90;;
